createdAt,value
2017-08-07T00:00:16.400Z,5.4
2017-08-07T00:01:19.152Z,5.4
2017-08-07T00:02:22.253Z,5.5
2017-08-07T00:03:25.687Z,5.4
2017-08-07T00:04:28.117Z,5.4
2017-08-07T00:05:30.875Z,5.4
2017-08-07T00:06:33.968Z,5.5
2017-08-07T00:07:36.389Z,5.4
2017-08-07T00:08:39.149Z,5.4
2017-08-07T00:09:41.919Z,5.5
2017-08-07T00:10:44.671Z,5.4
2017-08-07T00:11:47.427Z,5.4
2017-08-07T00:12:49.845Z,5.4
2017-08-07T00:13:52.590Z,5.4
2017-08-07T00:14:55.358Z,5.4
2017-08-07T00:15:57.765Z,5.4
2017-08-07T00:17:00.166Z,5.4
2017-08-07T00:18:03.265Z,5.4
2017-08-07T00:19:05.681Z,5.4
2017-08-07T00:20:08.096Z,5.5
2017-08-07T00:21:10.853Z,5.4
2017-08-07T00:22:13.270Z,5.4
2017-08-07T00:23:16.021Z,5.4
2017-08-07T00:24:18.445Z,5.4
2017-08-07T00:25:21.202Z,5.4
2017-08-07T00:26:23.602Z,5.4
2017-08-07T00:27:26.031Z,5.4
2017-08-07T00:28:28.451Z,5.5
2017-08-07T00:29:31.202Z,5.4
2017-08-07T00:30:33.620Z,5.4
2017-08-07T00:31:36.059Z,5.4
2017-08-07T00:32:38.810Z,5.5
2017-08-07T00:33:41.567Z,5.4
2017-08-07T00:34:43.985Z,5.4
2017-08-07T00:35:46.754Z,5.5
2017-08-07T00:36:49.174Z,5.5
2017-08-07T00:37:51.937Z,5.4
2017-08-07T00:38:54.694Z,5.4
2017-08-07T00:39:57.440Z,5.4
2017-08-07T00:40:59.860Z,5.4
2017-08-07T00:42:02.627Z,5.4
2017-08-07T00:43:05.052Z,5.5
2017-08-07T00:44:07.459Z,5.4
2017-08-07T00:45:09.891Z,5.4
2017-08-07T00:46:12.303Z,5.4
2017-08-07T00:47:14.718Z,5.5
2017-08-07T00:48:17.479Z,5.4
2017-08-07T00:49:20.246Z,5.4
2017-08-07T00:50:22.652Z,5.5
2017-08-07T00:51:25.074Z,5.4
2017-08-07T00:52:27.495Z,5.4
2017-08-07T00:53:30.249Z,5.4
2017-08-07T00:54:33.019Z,5.4
2017-08-07T00:55:35.436Z,5.4
2017-08-07T00:56:38.180Z,5.4
2017-08-07T00:57:40.967Z,5.4
2017-08-07T00:58:43.724Z,5.4
2017-08-07T00:59:46.490Z,5.4
2017-08-07T01:00:48.907Z,5.4
2017-08-07T01:01:51.323Z,5.4
2017-08-07T01:02:54.084Z,5.4
2017-08-07T01:03:56.495Z,5.5
2017-08-07T01:04:58.915Z,5.5
2017-08-07T01:06:01.342Z,5.5
2017-08-07T01:07:04.424Z,5.5
2017-08-07T01:08:07.165Z,5.5
2017-08-07T01:09:09.591Z,5.4
2017-08-07T01:10:12.015Z,5.4
2017-08-07T01:11:14.771Z,5.4
2017-08-07T01:12:17.187Z,5.4
2017-08-07T01:13:19.611Z,5.4
2017-08-07T01:14:22.030Z,5.4
2017-08-07T01:15:24.447Z,5.4
2017-08-07T01:16:26.855Z,5.4
2017-08-07T01:17:29.635Z,5.4
2017-08-07T01:18:32.395Z,5.4
2017-08-07T01:19:34.815Z,5.4
2017-08-07T01:20:37.567Z,5.4
2017-08-07T01:21:39.970Z,5.3
2017-08-07T01:22:42.738Z,5.4
2017-08-07T01:23:45.154Z,5.4
2017-08-07T01:24:47.571Z,5.4
2017-08-07T01:25:49.992Z,5.4
2017-08-07T01:26:52.396Z,5.4
2017-08-07T01:27:54.811Z,5.3
2017-08-07T01:28:57.234Z,5.4
2017-08-07T01:29:59.669Z,5.4
2017-08-07T01:31:02.424Z,5.4
2017-08-07T01:32:04.856Z,5.4
2017-08-07T01:33:07.274Z,5.4
2017-08-07T01:34:09.693Z,5.4
2017-08-07T01:35:12.108Z,5.4
2017-08-07T01:36:14.526Z,5.4
2017-08-07T01:37:16.936Z,5.4
2017-08-07T01:38:19.697Z,5.4
2017-08-07T01:39:22.459Z,5.4
2017-08-07T01:40:25.231Z,5.4
2017-08-07T01:41:27.666Z,5.3
2017-08-07T01:42:30.100Z,5.4
2017-08-07T01:43:32.518Z,5.4
2017-08-07T01:44:34.933Z,5.4
2017-08-07T01:45:37.691Z,5.4
2017-08-07T01:46:40.441Z,5.4
2017-08-07T01:47:42.874Z,5.3
2017-08-07T01:48:45.646Z,5.5
2017-08-07T01:49:48.054Z,5.3
2017-08-07T01:50:50.480Z,5.4
2017-08-07T01:51:52.892Z,5.4
2017-08-07T01:52:55.306Z,5.3
2017-08-07T01:53:58.396Z,5.4
2017-08-07T01:55:00.818Z,5.4
2017-08-07T01:56:03.223Z,5.3
2017-08-07T01:57:05.649Z,5.3
2017-08-07T01:58:08.087Z,5.4
2017-08-07T01:59:10.837Z,5.4
2017-08-07T02:00:13.614Z,5.3
2017-08-07T02:01:16.040Z,5.3
2017-08-07T02:02:18.458Z,5.3
2017-08-07T02:03:21.210Z,5.3
2017-08-07T02:04:23.970Z,5.3
2017-08-07T02:05:26.378Z,5.3
2017-08-07T02:06:29.136Z,5.3
2017-08-07T02:07:31.922Z,5.4
2017-08-07T02:08:35.011Z,5.3
2017-08-07T02:09:37.416Z,5.4
2017-08-07T02:10:39.845Z,5.3
2017-08-07T02:11:42.264Z,5.4
2017-08-07T02:12:44.671Z,5.3
2017-08-07T02:13:47.778Z,5.3
2017-08-07T02:14:50.179Z,5.3
2017-08-07T02:15:52.600Z,5.4
2017-08-07T02:16:55.039Z,5.3
2017-08-07T02:17:57.456Z,5.4
2017-08-07T02:18:59.876Z,5.3
2017-08-07T02:20:02.298Z,5.3
2017-08-07T02:21:05.050Z,5.3
2017-08-07T02:22:08.150Z,5.3
2017-08-07T02:23:10.568Z,5.3
2017-08-07T02:24:12.989Z,5.4
2017-08-07T02:25:16.074Z,5.3
2017-08-07T02:26:19.173Z,5.3
2017-08-07T02:27:21.579Z,5.4
2017-08-07T02:28:23.998Z,5.4
2017-08-07T02:29:26.755Z,5.3
2017-08-07T02:30:29.169Z,5.4
2017-08-07T02:31:31.927Z,5.3
2017-08-07T02:32:34.341Z,5.3
2017-08-07T02:33:36.778Z,5.3
2017-08-07T02:34:39.191Z,5.4
2017-08-07T02:35:42.280Z,5.3
2017-08-07T02:36:45.043Z,5.3
2017-08-07T02:37:48.138Z,5.3
2017-08-07T02:38:50.573Z,5.3
2017-08-07T02:39:53.310Z,5.3
2017-08-07T02:40:55.730Z,5.3
2017-08-07T02:41:58.838Z,5.3
2017-08-07T02:43:01.259Z,5.3
2017-08-07T02:44:04.348Z,5.3
2017-08-07T02:45:07.443Z,5.3
2017-08-07T02:46:09.850Z,5.3
2017-08-07T02:47:12.277Z,5.3
2017-08-07T02:48:15.025Z,5.3
2017-08-07T02:49:18.151Z,5.3
2017-08-07T02:50:20.897Z,5.3
2017-08-07T02:51:23.647Z,5.2
2017-08-07T02:52:26.087Z,5.2
2017-08-07T02:53:29.180Z,5.3
2017-08-07T02:54:31.930Z,5.3
2017-08-07T02:55:34.363Z,5.3
2017-08-07T02:56:36.779Z,5.3
2017-08-07T02:57:39.191Z,5.3
2017-08-07T02:58:41.609Z,5.3
2017-08-07T02:59:44.018Z,5.3
2017-08-07T03:00:46.434Z,5.3
2017-08-07T03:01:49.209Z,5.3
2017-08-07T03:02:51.983Z,5.3
2017-08-07T03:03:54.391Z,5.3
2017-08-07T03:04:57.150Z,5.3
2017-08-07T03:05:59.568Z,5.2
2017-08-07T03:07:02.675Z,5.3
2017-08-07T03:08:05.432Z,5.3
2017-08-07T03:09:08.193Z,5.2
2017-08-07T03:10:10.968Z,5.2
2017-08-07T03:11:13.730Z,5.2
2017-08-07T03:12:16.481Z,5.3
2017-08-07T03:13:18.905Z,5.3
2017-08-07T03:14:21.989Z,5.2
2017-08-07T03:15:24.411Z,5.2
2017-08-07T03:16:27.171Z,5.3
2017-08-07T03:17:29.935Z,5.3
2017-08-07T03:18:32.345Z,5.2
2017-08-07T03:19:34.755Z,5.2
2017-08-07T03:20:37.859Z,5.2
2017-08-07T03:21:40.639Z,5.2
2017-08-07T03:22:43.049Z,5.3
2017-08-07T03:23:45.474Z,5.2
2017-08-07T03:24:47.905Z,5.3
2017-08-07T03:25:50.320Z,5.3
2017-08-07T03:26:53.069Z,5.2
2017-08-07T03:27:55.817Z,5.2
2017-08-07T03:28:58.589Z,5.3
2017-08-07T03:30:01.357Z,5.4
2017-08-07T03:31:03.783Z,5.3
2017-08-07T03:32:06.204Z,5.2
2017-08-07T03:33:08.611Z,5.4
2017-08-07T03:34:11.022Z,5.3
2017-08-07T03:35:13.769Z,5.3
2017-08-07T03:36:16.528Z,5.2
2017-08-07T03:37:19.307Z,5.3
2017-08-07T03:38:22.054Z,5.2
2017-08-07T03:39:24.457Z,5.2
2017-08-07T03:40:26.885Z,5.2
2017-08-07T03:41:29.675Z,5.2
2017-08-07T03:42:32.445Z,5.2
2017-08-07T03:43:34.870Z,5.3
2017-08-07T03:44:37.285Z,5.3
2017-08-07T03:45:40.039Z,5.3
2017-08-07T03:46:42.466Z,5.3
2017-08-07T03:47:44.881Z,5.3
2017-08-07T03:48:47.292Z,5.3
2017-08-07T03:49:49.705Z,5.3
2017-08-07T03:50:52.801Z,5.3
2017-08-07T03:51:55.210Z,5.3
2017-08-07T03:52:57.634Z,5.3
2017-08-07T03:54:00.373Z,5.3
2017-08-07T03:55:03.130Z,5.3
2017-08-07T03:56:05.544Z,5.3
2017-08-07T03:57:07.965Z,5.3
2017-08-07T03:58:11.419Z,5.3
2017-08-07T03:59:14.174Z,5.3
2017-08-07T04:00:16.585Z,5.4
2017-08-07T04:01:19.012Z,5.2
2017-08-07T04:02:21.424Z,5.3
2017-08-07T04:03:23.823Z,5.3
2017-08-07T04:04:26.589Z,5.2
2017-08-07T04:05:29.355Z,5.3
2017-08-07T04:06:32.103Z,5.3
2017-08-07T04:07:34.605Z,5.3
2017-08-07T04:08:37.112Z,5.3
2017-08-07T04:09:39.997Z,5.3
2017-08-07T04:10:42.873Z,5.3
2017-08-07T04:11:45.739Z,5.4
2017-08-07T04:12:48.605Z,5.3
2017-08-07T04:13:51.459Z,5.3
2017-08-07T04:14:54.063Z,5.3
2017-08-07T04:15:56.903Z,5.3
2017-08-07T04:16:59.409Z,5.3
2017-08-07T04:18:02.285Z,5.4
2017-08-07T04:19:05.490Z,5.3
2017-08-07T04:20:07.996Z,5.3
2017-08-07T04:21:10.519Z,5.4
2017-08-07T04:22:13.397Z,5.5
2017-08-07T04:23:16.584Z,5.4
2017-08-07T04:24:19.110Z,5.5
2017-08-07T04:25:22.313Z,5.5
2017-08-07T04:26:25.530Z,5.4
2017-08-07T04:27:28.058Z,5.5
2017-08-07T04:28:30.909Z,5.5
2017-08-07T04:29:33.502Z,5.5
2017-08-07T04:30:36.017Z,5.4
2017-08-07T04:31:38.878Z,5.4
2017-08-07T04:32:41.759Z,5.5
2017-08-07T04:33:44.300Z,5.4
2017-08-07T04:34:46.804Z,5.4
2017-08-07T04:35:49.663Z,5.4
2017-08-07T04:36:52.178Z,5.4
2017-08-07T04:37:54.691Z,5.4
2017-08-07T04:38:57.212Z,5.4
2017-08-07T04:39:59.717Z,5.4
2017-08-07T04:41:02.230Z,5.4
2017-08-07T04:42:05.791Z,5.4
2017-08-07T04:43:08.671Z,5.4
2017-08-07T04:44:12.536Z,5.5
2017-08-07T04:45:15.381Z,5.4
2017-08-07T04:46:17.904Z,5.4
2017-08-07T04:47:21.107Z,5.4
2017-08-07T04:48:23.948Z,5.3
2017-08-07T04:49:26.453Z,5.4
2017-08-07T04:50:28.960Z,5.4
2017-08-07T04:51:31.818Z,5.4
2017-08-07T04:52:34.330Z,5.4
2017-08-07T04:53:37.189Z,5.4
2017-08-07T04:54:39.717Z,5.3
2017-08-07T04:55:42.570Z,5.4
2017-08-07T04:56:45.080Z,5.3
2017-08-07T04:57:47.939Z,5.4
2017-08-07T04:58:50.476Z,5.4
2017-08-07T04:59:53.334Z,5.5
2017-08-07T05:00:56.188Z,5.4
2017-08-07T05:01:58.709Z,5.4
2017-08-07T05:03:01.581Z,5.4
2017-08-07T05:04:04.091Z,5.5
2017-08-07T05:05:06.981Z,5.4
2017-08-07T05:06:09.494Z,5.4
2017-08-07T05:07:12.675Z,5.4
2017-08-07T05:08:15.187Z,5.4
2017-08-07T05:09:17.669Z,5.5
2017-08-07T05:10:20.200Z,5.4
2017-08-07T05:11:22.713Z,5.4
2017-08-07T05:12:25.214Z,5.4
2017-08-07T05:13:27.732Z,5.4
2017-08-07T05:14:30.270Z,5.4
2017-08-07T05:15:32.775Z,5.4
2017-08-07T05:16:35.977Z,5.4
2017-08-07T05:17:38.827Z,5.5
2017-08-07T05:18:41.335Z,5.4
2017-08-07T05:19:44.207Z,5.4
2017-08-07T05:20:46.700Z,5.5
2017-08-07T05:21:49.561Z,5.5
2017-08-07T05:22:52.073Z,5.5
2017-08-07T05:23:54.574Z,5.4
2017-08-07T05:24:58.110Z,5.5
2017-08-07T05:26:00.623Z,5.4
2017-08-07T05:27:03.108Z,5.5
2017-08-07T05:28:06.307Z,5.5
2017-08-07T05:29:08.814Z,5.5
2017-08-07T05:30:11.648Z,5.5
2017-08-07T05:31:14.152Z,5.5
2017-08-07T05:32:17.020Z,5.6
2017-08-07T05:33:19.513Z,5.6
2017-08-07T05:34:22.038Z,5.6
2017-08-07T05:35:24.538Z,5.6
2017-08-07T05:36:27.041Z,5.6
2017-08-07T05:37:29.897Z,5.6
2017-08-07T05:38:32.407Z,5.6
2017-08-07T05:39:34.913Z,5.6
2017-08-07T05:40:37.423Z,5.6
2017-08-07T05:41:39.921Z,5.6
2017-08-07T05:42:42.770Z,5.7
2017-08-07T05:43:45.273Z,5.6
2017-08-07T05:44:47.787Z,5.7
2017-08-07T05:45:50.308Z,5.7
2017-08-07T05:46:53.514Z,5.7
2017-08-07T05:47:56.046Z,5.6
2017-08-07T05:48:58.896Z,5.6
2017-08-07T05:50:02.417Z,5.6
2017-08-07T05:51:04.949Z,5.7
2017-08-07T05:52:07.459Z,5.6
2017-08-07T05:53:09.957Z,5.6
2017-08-07T05:54:12.461Z,5.7
2017-08-07T05:55:14.968Z,5.7
2017-08-07T05:56:17.829Z,5.8
2017-08-07T05:57:20.674Z,5.7
2017-08-07T05:58:23.184Z,5.7
2017-08-07T05:59:26.373Z,5.8
2017-08-07T06:00:29.624Z,5.8
2017-08-07T06:01:32.115Z,5.7
2017-08-07T06:02:34.624Z,5.9
2017-08-07T06:03:37.159Z,5.7
2017-08-07T06:04:40.022Z,5.7
2017-08-07T06:05:42.512Z,5.7
2017-08-07T06:06:45.024Z,5.7
2017-08-07T06:07:47.557Z,5.7
2017-08-07T06:08:50.401Z,5.7
2017-08-07T06:09:52.927Z,5.7
2017-08-07T06:10:55.453Z,5.7
2017-08-07T06:11:58.305Z,5.8
2017-08-07T06:13:00.839Z,5.7
2017-08-07T06:14:04.049Z,5.8
2017-08-07T06:15:07.223Z,5.9
2017-08-07T06:16:09.764Z,5.8
2017-08-07T06:17:12.620Z,5.8
2017-08-07T06:18:15.179Z,5.8
2017-08-07T06:19:18.358Z,5.7
2017-08-07T06:20:21.552Z,5.8
2017-08-07T06:21:24.739Z,5.8
2017-08-07T06:22:27.265Z,5.8
2017-08-07T06:23:29.790Z,5.8
2017-08-07T06:24:32.673Z,5.8
2017-08-07T06:25:35.182Z,5.8
2017-08-07T06:26:38.030Z,5.7
2017-08-07T06:27:40.888Z,5.8
2017-08-07T06:28:44.079Z,5.8
2017-08-07T06:29:46.940Z,5.7
2017-08-07T06:30:49.454Z,5.8
2017-08-07T06:31:52.288Z,5.8
2017-08-07T06:32:55.137Z,5.8
2017-08-07T06:33:57.673Z,5.9
2017-08-07T06:35:00.190Z,5.8
2017-08-07T06:36:02.702Z,5.9
2017-08-07T06:37:05.206Z,5.8
2017-08-07T06:38:07.704Z,5.8
2017-08-07T06:39:10.243Z,5.8
2017-08-07T06:40:12.777Z,5.8
2017-08-07T06:41:15.277Z,5.8
2017-08-07T06:42:18.146Z,5.8
2017-08-07T06:43:21.008Z,5.9
2017-08-07T06:44:23.508Z,5.8
2017-08-07T06:45:26.007Z,5.8
2017-08-07T06:46:28.856Z,5.8
2017-08-07T06:47:31.360Z,5.8
2017-08-07T06:48:33.873Z,5.9
2017-08-07T06:49:36.380Z,5.9
2017-08-07T06:50:38.870Z,5.8
2017-08-07T06:51:42.397Z,5.8
2017-08-07T06:52:45.277Z,5.9
2017-08-07T06:53:47.806Z,5.8
2017-08-07T06:54:50.317Z,5.9
2017-08-07T06:55:53.532Z,5.9
2017-08-07T06:56:56.043Z,5.9
2017-08-07T06:57:58.569Z,5.9
2017-08-07T06:59:02.120Z,6
2017-08-07T07:00:04.980Z,5.9
2017-08-07T07:01:07.488Z,6
2017-08-07T07:02:10.015Z,5.9
2017-08-07T07:03:12.515Z,5.9
2017-08-07T07:04:15.028Z,5.9
2017-08-07T07:05:17.547Z,5.9
2017-08-07T07:06:20.418Z,6
2017-08-07T07:07:22.940Z,5.9
2017-08-07T07:08:25.448Z,5.9
2017-08-07T07:09:28.312Z,5.9
2017-08-07T07:10:30.825Z,6
2017-08-07T07:11:33.335Z,6
2017-08-07T07:12:36.190Z,6
2017-08-07T07:13:38.733Z,6
2017-08-07T07:14:41.590Z,6
2017-08-07T07:15:44.088Z,6
2017-08-07T07:16:47.316Z,6
2017-08-07T07:17:49.819Z,6
2017-08-07T07:18:52.670Z,6
2017-08-07T07:19:55.528Z,6
2017-08-07T07:20:58.062Z,6
2017-08-07T07:22:00.597Z,6
2017-08-07T07:23:03.462Z,6
2017-08-07T07:24:06.312Z,6
2017-08-07T07:25:09.166Z,6
2017-08-07T07:26:11.694Z,6
2017-08-07T07:27:14.542Z,6
2017-08-07T07:28:17.085Z,6.1
2017-08-07T07:29:19.935Z,6.1
2017-08-07T07:30:23.126Z,6.1
2017-08-07T07:31:25.622Z,6.1
2017-08-07T07:32:28.521Z,6.1
2017-08-07T07:33:31.046Z,6.1
2017-08-07T07:34:33.920Z,6.1
2017-08-07T07:35:36.430Z,6.1
2017-08-07T07:36:39.293Z,6.1
2017-08-07T07:37:41.805Z,6.1
2017-08-07T07:38:44.347Z,6.1
2017-08-07T07:39:46.841Z,6.1
2017-08-07T07:40:49.363Z,6.1
2017-08-07T07:41:51.873Z,6.1
2017-08-07T07:42:54.380Z,6.1
2017-08-07T07:43:57.584Z,6.2
2017-08-07T07:45:00.453Z,6.2
2017-08-07T07:46:03.307Z,6.2
2017-08-07T07:47:05.828Z,6.2
2017-08-07T07:48:09.019Z,6.1
2017-08-07T07:49:11.883Z,6.1
2017-08-07T07:50:14.729Z,6.1
2017-08-07T07:51:17.274Z,6.1
2017-08-07T07:52:20.157Z,6.1
2017-08-07T07:53:22.689Z,6.1
2017-08-07T07:54:25.243Z,6.1
2017-08-07T07:55:28.421Z,6.1
2017-08-07T07:56:30.934Z,6.2
2017-08-07T07:57:33.468Z,6.2
2017-08-07T07:58:36.666Z,6.2
2017-08-07T07:59:39.505Z,6.2
2017-08-07T08:00:42.395Z,6.3
2017-08-07T08:01:44.914Z,6.3
2017-08-07T08:02:47.417Z,6.2
2017-08-07T08:03:49.939Z,6.3
2017-08-07T08:04:52.810Z,6.2
2017-08-07T08:05:56.022Z,6.2
2017-08-07T08:06:58.882Z,6.2
2017-08-07T08:08:01.400Z,6.2
2017-08-07T08:09:03.923Z,6.2
2017-08-07T08:10:07.470Z,6.2
2017-08-07T08:11:10.324Z,6.2
2017-08-07T08:12:12.818Z,6.2
2017-08-07T08:13:15.346Z,6.2
2017-08-07T08:14:17.883Z,6.2
2017-08-07T08:15:20.748Z,6.3
2017-08-07T08:16:23.267Z,6.2
2017-08-07T08:17:25.795Z,6.2
2017-08-07T08:18:28.658Z,6.3
2017-08-07T08:19:31.185Z,6.2
2017-08-07T08:20:33.710Z,6.3
2017-08-07T08:21:37.233Z,6.3
2017-08-07T08:22:39.746Z,6.3
2017-08-07T08:23:42.279Z,6.3
2017-08-07T08:24:45.112Z,6.3
2017-08-07T08:25:48.669Z,6.3
2017-08-07T08:26:51.529Z,6.3
2017-08-07T08:27:54.399Z,6.3
2017-08-07T08:28:56.924Z,6.3
2017-08-07T08:29:59.798Z,6.3
2017-08-07T08:31:02.316Z,6.3
2017-08-07T08:32:04.863Z,6.4
2017-08-07T08:33:07.369Z,6.3
2017-08-07T08:34:09.880Z,6.3
2017-08-07T08:35:12.739Z,6.3
2017-08-07T08:36:15.942Z,6.3
2017-08-07T08:37:18.804Z,6.3
2017-08-07T08:38:21.670Z,6.3
2017-08-07T08:39:24.173Z,6.3
2017-08-07T08:40:26.687Z,6.3
2017-08-07T08:41:29.220Z,6.3
2017-08-07T08:42:31.736Z,6.3
2017-08-07T08:43:34.271Z,6.3
2017-08-07T08:44:37.141Z,6.3
2017-08-07T08:45:39.985Z,6.4
2017-08-07T08:46:42.534Z,6.4
2017-08-07T08:47:45.391Z,6.3
2017-08-07T08:48:48.250Z,6.3
2017-08-07T08:49:50.769Z,6.4
2017-08-07T08:50:53.645Z,6.3
2017-08-07T08:51:56.146Z,6.4
2017-08-07T08:52:59.045Z,6.4
2017-08-07T08:54:01.549Z,6.3
2017-08-07T08:55:04.423Z,6.4
2017-08-07T08:56:07.286Z,6.4
2017-08-07T08:57:10.149Z,6.3
2017-08-07T08:58:12.665Z,6.4
2017-08-07T08:59:15.526Z,6.4
2017-08-07T09:00:18.727Z,6.4
2017-08-07T09:01:21.943Z,6.3
2017-08-07T09:02:24.781Z,6.4
2017-08-07T09:03:27.312Z,6.4
2017-08-07T09:04:30.190Z,6.4
2017-08-07T09:05:33.056Z,6.4
2017-08-07T09:06:35.589Z,6.4
2017-08-07T09:07:38.814Z,6.4
2017-08-07T09:08:41.691Z,6.4
2017-08-07T09:09:44.583Z,6.4
2017-08-07T09:10:47.108Z,6.4
2017-08-07T09:11:50.312Z,6.4
2017-08-07T09:12:52.829Z,6.4
2017-08-07T09:13:55.368Z,6.4
2017-08-07T09:14:58.232Z,6.5
2017-08-07T09:16:01.761Z,6.4
2017-08-07T09:17:05.310Z,6.4
2017-08-07T09:18:08.171Z,6.5
2017-08-07T09:19:10.713Z,6.5
2017-08-07T09:20:13.564Z,6.5
2017-08-07T09:21:16.077Z,6.5
2017-08-07T09:22:18.590Z,6.5
2017-08-07T09:23:21.441Z,6.5
2017-08-07T09:24:23.988Z,6.5
2017-08-07T09:25:26.885Z,6.5
2017-08-07T09:26:29.406Z,6.5
2017-08-07T09:27:31.941Z,6.6
2017-08-07T09:28:34.471Z,6.5
2017-08-07T09:29:36.982Z,6.6
2017-08-07T09:30:39.818Z,6.5
2017-08-07T09:31:42.692Z,6.5
2017-08-07T09:32:45.222Z,6.6
2017-08-07T09:33:48.089Z,6.5
2017-08-07T09:34:50.960Z,6.6
2017-08-07T09:35:53.485Z,6.5
2017-08-07T09:36:55.997Z,6.6
2017-08-07T09:37:58.540Z,6.6
2017-08-07T09:39:01.407Z,6.5
2017-08-07T09:40:04.948Z,6.6
2017-08-07T09:41:07.803Z,6.6
2017-08-07T09:42:10.337Z,6.6
2017-08-07T09:43:12.864Z,6.6
2017-08-07T09:44:15.402Z,6.6
2017-08-07T09:45:18.613Z,6.6
2017-08-07T09:46:21.486Z,6.6
2017-08-07T09:47:24.006Z,6.6
2017-08-07T09:48:26.529Z,6.6
2017-08-07T09:49:29.395Z,6.6
2017-08-07T09:50:31.926Z,6.6
2017-08-07T09:51:34.792Z,6.6
2017-08-07T09:52:37.694Z,6.6
2017-08-07T09:53:40.551Z,6.6
2017-08-07T09:54:43.060Z,6.6
2017-08-07T09:55:45.927Z,6.6
2017-08-07T09:56:48.807Z,6.6
2017-08-07T09:57:52.013Z,6.5
2017-08-07T09:58:54.893Z,6.5
2017-08-07T09:59:57.755Z,6.5
2017-08-07T10:01:00.619Z,6.6
2017-08-07T10:02:03.806Z,6.5
2017-08-07T10:03:06.335Z,6.6
2017-08-07T10:04:09.195Z,6.5
2017-08-07T10:05:11.725Z,6.5
2017-08-07T10:06:14.252Z,6.5
2017-08-07T10:07:16.778Z,6.5
2017-08-07T10:08:19.284Z,6.5
2017-08-07T10:09:21.818Z,6.5
2017-08-07T10:10:25.035Z,6.6
2017-08-07T10:11:27.555Z,6.6
2017-08-07T10:12:30.077Z,6.6
2017-08-07T10:13:32.956Z,6.6
2017-08-07T10:14:35.472Z,6.6
2017-08-07T10:15:39.010Z,6.6
2017-08-07T10:16:41.897Z,6.5
2017-08-07T10:17:44.418Z,6.5
2017-08-07T10:18:46.940Z,6.5
2017-08-07T10:19:49.823Z,6.6
2017-08-07T10:20:53.018Z,6.5
2017-08-07T10:21:55.873Z,6.5
2017-08-07T10:22:58.387Z,6.6
2017-08-07T10:24:00.913Z,6.5
2017-08-07T10:25:03.766Z,6.5
2017-08-07T10:26:06.635Z,6.5
2017-08-07T10:27:09.489Z,6.5
2017-08-07T10:28:12.029Z,6.5
2017-08-07T10:29:14.549Z,6.5
2017-08-07T10:30:17.753Z,6.5
2017-08-07T10:31:20.278Z,6.5
2017-08-07T10:32:22.804Z,6.5
2017-08-07T10:33:25.334Z,6.5
2017-08-07T10:34:28.214Z,6.5
2017-08-07T10:35:30.725Z,6.5
2017-08-07T10:36:33.592Z,6.6
2017-08-07T10:37:36.124Z,6.5
2017-08-07T10:38:38.988Z,6.5
2017-08-07T10:39:41.514Z,6.6
2017-08-07T10:40:44.396Z,6.5
2017-08-07T10:41:46.914Z,6.5
2017-08-07T10:42:49.450Z,6.5
2017-08-07T10:43:52.300Z,6.5
2017-08-07T10:44:54.845Z,6.6
2017-08-07T10:45:57.356Z,6.6
2017-08-07T10:46:59.882Z,6.6
2017-08-07T10:48:02.406Z,6.6
2017-08-07T10:49:05.273Z,6.6
2017-08-07T10:50:07.800Z,6.6
2017-08-07T10:51:10.689Z,6.6
2017-08-07T10:52:13.208Z,6.7
2017-08-07T10:53:16.077Z,6.7
2017-08-07T10:54:18.608Z,6.6
2017-08-07T10:55:21.130Z,6.7
2017-08-07T10:56:23.666Z,6.7
2017-08-07T10:57:26.212Z,6.7
2017-08-07T10:58:29.398Z,6.7
2017-08-07T10:59:32.278Z,6.7
2017-08-07T11:00:35.143Z,6.7
2017-08-07T11:01:38.010Z,6.7
2017-08-07T11:02:40.552Z,6.7
2017-08-07T11:03:43.066Z,6.7
2017-08-07T11:04:45.585Z,6.7
2017-08-07T11:05:48.102Z,6.7
2017-08-07T11:06:50.632Z,6.7
2017-08-07T11:07:53.163Z,6.6
2017-08-07T11:08:56.021Z,6.7
2017-08-07T11:09:59.560Z,6.7
2017-08-07T11:11:02.461Z,6.6
2017-08-07T11:12:05.330Z,6.7
2017-08-07T11:13:08.198Z,6.7
2017-08-07T11:14:10.730Z,6.6
2017-08-07T11:15:13.261Z,6.7
2017-08-07T11:16:16.121Z,6.6
2017-08-07T11:17:18.653Z,6.6
2017-08-07T11:18:21.156Z,6.7
2017-08-07T11:19:24.393Z,6.7
2017-08-07T11:20:26.916Z,6.7
2017-08-07T11:21:30.114Z,6.7
2017-08-07T11:22:32.628Z,6.7
2017-08-07T11:23:35.149Z,6.7
2017-08-07T11:24:37.671Z,6.7
2017-08-07T11:25:40.216Z,6.8
2017-08-07T11:26:43.072Z,6.8
2017-08-07T11:27:45.598Z,6.7
2017-08-07T11:28:48.457Z,6.8
2017-08-07T11:29:51.335Z,6.8
2017-08-07T11:30:53.851Z,6.8
2017-08-07T11:31:56.373Z,6.8
2017-08-07T11:32:58.908Z,6.8
2017-08-07T11:34:01.430Z,6.8
2017-08-07T11:35:04.629Z,6.8
2017-08-07T11:36:07.167Z,6.8
2017-08-07T11:37:10.043Z,6.8
2017-08-07T11:38:13.614Z,6.7
2017-08-07T11:39:16.154Z,6.8
2017-08-07T11:40:19.019Z,6.8
2017-08-07T11:41:22.257Z,6.8
2017-08-07T11:42:25.142Z,6.8
2017-08-07T11:43:28.024Z,6.8
2017-08-07T11:44:31.257Z,6.8
2017-08-07T11:45:33.786Z,6.8
2017-08-07T11:46:36.658Z,6.8
2017-08-07T11:47:39.183Z,6.8
2017-08-07T11:48:41.709Z,6.8
2017-08-07T11:49:44.226Z,6.8
2017-08-07T11:50:47.112Z,6.8
2017-08-07T11:51:50.339Z,6.8
2017-08-07T11:52:52.879Z,6.8
2017-08-07T11:53:55.406Z,6.8
2017-08-07T11:54:57.929Z,6.8
2017-08-07T11:56:00.826Z,6.8
2017-08-07T11:57:03.379Z,6.8
2017-08-07T11:58:06.242Z,6.8
2017-08-07T11:59:08.767Z,6.8
2017-08-07T12:00:11.297Z,6.8
2017-08-07T12:01:13.842Z,6.8
2017-08-07T12:02:16.384Z,6.9
2017-08-07T12:03:19.595Z,6.8
2017-08-07T12:04:22.126Z,6.8
2017-08-07T12:05:24.651Z,6.8
2017-08-07T12:06:27.531Z,6.8
2017-08-07T12:07:30.091Z,6.8
2017-08-07T12:08:32.609Z,6.8
2017-08-07T12:09:35.477Z,6.8
2017-08-07T12:10:38.015Z,6.8
2017-08-07T12:11:41.569Z,6.8
2017-08-07T12:12:44.437Z,6.8
2017-08-07T12:13:46.988Z,6.8
2017-08-07T12:14:49.857Z,6.8
2017-08-07T12:15:52.415Z,6.8
2017-08-07T12:16:55.310Z,6.8
2017-08-07T12:17:57.858Z,6.8
2017-08-07T12:19:00.392Z,6.8
2017-08-07T12:20:03.293Z,6.8
2017-08-07T12:21:06.186Z,6.8
2017-08-07T12:22:08.714Z,6.8
2017-08-07T12:23:11.298Z,6.8
2017-08-07T12:24:13.835Z,6.8
2017-08-07T12:25:17.043Z,6.8
2017-08-07T12:26:20.273Z,6.8
2017-08-07T12:27:23.186Z,6.8
2017-08-07T12:28:25.724Z,6.8
2017-08-07T12:29:28.596Z,6.8
2017-08-07T12:30:31.129Z,6.8
2017-08-07T12:31:33.669Z,6.8
2017-08-07T12:32:36.523Z,6.8
2017-08-07T12:33:39.050Z,6.8
2017-08-07T12:34:41.580Z,6.8
2017-08-07T12:35:45.028Z,6.8
2017-08-07T12:36:47.977Z,6.8
2017-08-07T12:37:50.515Z,6.8
2017-08-07T12:38:53.387Z,6.8
2017-08-07T12:39:56.608Z,6.8
2017-08-07T12:40:59.151Z,6.8
2017-08-07T12:42:01.677Z,6.8
2017-08-07T12:43:04.559Z,6.8
2017-08-07T12:44:07.080Z,6.8
2017-08-07T12:45:10.034Z,6.8
2017-08-07T12:46:12.914Z,6.8
2017-08-07T12:47:15.794Z,6.8
2017-08-07T12:48:18.332Z,6.8
2017-08-07T12:49:20.898Z,6.8
2017-08-07T12:50:23.785Z,6.8
2017-08-07T12:51:26.320Z,6.8
2017-08-07T12:52:28.839Z,6.8
2017-08-07T12:53:31.389Z,6.8
2017-08-07T12:54:34.247Z,6.8
2017-08-07T12:55:36.781Z,6.8
2017-08-07T12:56:39.315Z,6.8
2017-08-07T12:57:41.851Z,6.8
2017-08-07T12:58:44.402Z,6.8
2017-08-07T12:59:46.950Z,6.8
2017-08-07T13:00:49.837Z,6.8
2017-08-07T13:01:52.385Z,6.8
2017-08-07T13:02:55.597Z,6.8
2017-08-07T13:03:58.801Z,6.8
2017-08-07T13:05:01.681Z,6.8
2017-08-07T13:06:04.568Z,6.8
2017-08-07T13:07:07.111Z,6.8
2017-08-07T13:08:09.989Z,6.8
2017-08-07T13:09:12.538Z,6.8
2017-08-07T13:10:15.067Z,6.8
2017-08-07T13:11:17.609Z,6.8
2017-08-07T13:12:20.138Z,6.8
2017-08-07T13:13:23.015Z,6.8
2017-08-07T13:14:25.905Z,6.8
2017-08-07T13:15:28.774Z,6.8
2017-08-07T13:16:31.329Z,6.8
2017-08-07T13:17:34.566Z,6.8
2017-08-07T13:18:37.771Z,6.8
2017-08-07T13:19:40.311Z,6.8
2017-08-07T13:20:42.876Z,6.8
2017-08-07T13:21:45.386Z,6.8
2017-08-07T13:22:48.635Z,6.8
2017-08-07T13:23:51.528Z,6.8
2017-08-07T13:24:54.051Z,6.8
2017-08-07T13:25:56.595Z,6.8
2017-08-07T13:26:59.139Z,6.9
2017-08-07T13:28:02.004Z,6.9
2017-08-07T13:29:04.544Z,6.8
2017-08-07T13:30:07.531Z,6.9
2017-08-07T13:31:10.066Z,6.9
2017-08-07T13:32:12.616Z,6.8
2017-08-07T13:33:15.149Z,6.9
2017-08-07T13:34:18.356Z,6.8
2017-08-07T13:35:20.878Z,6.9
2017-08-07T13:36:23.752Z,6.8
2017-08-07T13:37:26.267Z,6.8
2017-08-07T13:38:28.808Z,6.8
2017-08-07T13:39:31.415Z,6.8
2017-08-07T13:40:33.943Z,6.9
2017-08-07T13:41:36.894Z,6.8
2017-08-07T13:42:40.109Z,6.8
2017-08-07T13:43:42.672Z,6.9
2017-08-07T13:44:45.205Z,6.8
2017-08-07T13:45:48.077Z,6.9
2017-08-07T13:46:50.973Z,6.8
2017-08-07T13:47:53.514Z,6.8
2017-08-07T13:48:56.044Z,6.9
2017-08-07T13:49:58.607Z,6.8
2017-08-07T13:51:02.189Z,6.8
2017-08-07T13:52:04.717Z,6.8
2017-08-07T13:53:07.562Z,6.9
2017-08-07T13:54:10.074Z,6.8
2017-08-07T13:55:13.294Z,6.8
2017-08-07T13:56:16.162Z,6.8
2017-08-07T13:57:18.689Z,6.8
2017-08-07T13:58:21.917Z,6.8
2017-08-07T13:59:24.464Z,6.8
2017-08-07T14:00:27.351Z,6.8
2017-08-07T14:01:29.881Z,6.8
2017-08-07T14:02:32.450Z,6.8
2017-08-07T14:03:35.296Z,6.8
2017-08-07T14:04:38.520Z,6.8
2017-08-07T14:05:41.376Z,6.8
2017-08-07T14:06:43.906Z,6.8
2017-08-07T14:07:46.449Z,6.9
2017-08-07T14:08:48.968Z,6.8
2017-08-07T14:09:51.863Z,6.8
2017-08-07T14:10:54.755Z,6.8
2017-08-07T14:11:57.282Z,6.8
2017-08-07T14:12:59.817Z,6.8
2017-08-07T14:14:02.685Z,6.8
2017-08-07T14:15:05.200Z,6.8
2017-08-07T14:16:07.755Z,6.8
2017-08-07T14:17:10.990Z,6.8
2017-08-07T14:18:13.509Z,6.7
2017-08-07T14:19:16.070Z,6.8
2017-08-07T14:20:18.993Z,6.7
2017-08-07T14:21:21.520Z,6.8
2017-08-07T14:22:24.080Z,6.8
2017-08-07T14:23:26.596Z,6.8
2017-08-07T14:24:29.472Z,6.8